»·PEaware :: DCM424 KOTH-KBFI

DCM424 :: KOTH-KBFI

FLIGHT INFORMATION

Flight Status: Arrived
Operator: DotCom
More flights by this operator :: More flights under this callsign
Pilot: Ben H. (9170)
Aircraft: BOEING 737-300
(B733)
More flights by this aircraft type
Origin: KOTH North Bend Mun
United States
Destination: KBFI Boeing Field/King Co Intl
United States
More flights between these airports :: More routes between these airports
Route: OTH6 RARES BTG OLM2
File this flight plan on PilotEdge
Remarks:
Altitude:
(Current/Filed)
35,000ft
Speed:
(Current/Filed)
446kts
Departed: 26-Oct-19 02:21 PM
Arrived: 26-Oct-19 03:26 PM
Distance/Time
Traveled:
260nm/1:05
Distance/Time
To Go:
Arrived

Flight Plot

Page will automatically refresh every two minutes.

Flight plan parsing failed; only flown route is shown


Map Options




Map Legend


Flown Route
Filed Route
Departure Airport
Arrival Airport
Navaid (VOR, NDB)
Fix

Horizontal Profiles

Position Reports

Time Latitude Longitude Heading Altitude Ground
Speed
26-Oct-19 13:33 43.416844 -124.249584 212 24ft 0kts
26-Oct-19 13:34 43.416844 -124.249584 212 24ft 0kts
26-Oct-19 13:35 43.416844 -124.249584 212 24ft 0kts
26-Oct-19 13:36 43.416844 -124.249584 212 24ft 0kts
26-Oct-19 13:37 43.416844 -124.249584 212 24ft 0kts
26-Oct-19 13:38 43.416844 -124.249584 212 24ft 0kts
26-Oct-19 13:39 43.416844 -124.249584 212 24ft 0kts
26-Oct-19 13:40 43.416844 -124.249584 212 24ft 0kts
26-Oct-19 13:41 43.416844 -124.249584 212 24ft 0kts
26-Oct-19 13:42 43.416844 -124.249584 212 24ft 0kts
26-Oct-19 13:43 43.416844 -124.249584 212 24ft 0kts
26-Oct-19 13:44 43.416844 -124.249584 212 24ft 0kts
26-Oct-19 13:45 43.416844 -124.249584 212 24ft 0kts
26-Oct-19 13:46 43.416844 -124.249584 212 24ft 0kts
26-Oct-19 13:47 43.416844 -124.249584 212 24ft 0kts
26-Oct-19 13:48 43.416844 -124.249584 212 24ft 0kts
26-Oct-19 13:49 43.416844 -124.249584 212 24ft 0kts
26-Oct-19 13:50 43.416844 -124.249584 212 24ft 0kts
26-Oct-19 13:51 43.416844 -124.249584 212 24ft 0kts
26-Oct-19 13:52 43.416844 -124.249584 212 24ft 0kts
26-Oct-19 13:53 43.416844 -124.249584 212 24ft 0kts
26-Oct-19 13:54 43.416844 -124.249584 212 24ft 0kts
26-Oct-19 13:55 43.416844 -124.249584 212 24ft 0kts
26-Oct-19 13:56 43.416844 -124.249584 212 24ft 0kts
26-Oct-19 13:57 43.416844 -124.249584 212 24ft 0kts
26-Oct-19 13:58 43.416844 -124.249584 212 24ft 0kts
26-Oct-19 13:59 43.416844 -124.249584 212 24ft 0kts
26-Oct-19 14:00 43.416894 -124.249540 211 24ft 2kts
26-Oct-19 14:01 43.417466 -124.249334 153 24ft 2kts
26-Oct-19 14:02 43.417954 -124.249599 213 24ft 2kts
26-Oct-19 14:03 43.418075 -124.249357 243 24ft 0kts
26-Oct-19 14:04 43.418075 -124.249357 243 24ft 0kts
26-Oct-19 14:05 43.418075 -124.249357 243 24ft 0kts
26-Oct-19 14:06 43.418075 -124.249357 243 24ft 0kts
26-Oct-19 14:07 43.417426 -124.250989 241 24ft 11kts
26-Oct-19 14:08 43.415417 -124.255950 243 24ft 17kts
26-Oct-19 14:09 43.413993 -124.259908 316 24ft 0kts
26-Oct-19 14:10 43.413993 -124.259908 316 24ft 0kts
26-Oct-19 14:11 43.413994 -124.259908 316 24ft 0kts
26-Oct-19 14:12 43.413994 -124.259908 316 24ft 0kts
26-Oct-19 14:13 43.413994 -124.259908 316 24ft 0kts
26-Oct-19 14:14 43.413994 -124.259908 316 24ft 0kts
26-Oct-19 14:15 43.413993 -124.259909 317 24ft 0kts
26-Oct-19 14:16 43.413994 -124.259908 316 24ft 0kts
26-Oct-19 14:17 43.413994 -124.259908 316 24ft 0kts
26-Oct-19 14:18 43.413993 -124.259908 316 24ft 0kts
26-Oct-19 14:19 43.414282 -124.260186 330 24ft 5kts
26-Oct-19 14:20 43.416656 -124.255801 57 24ft 74kts
26-Oct-19 14:21 43.433408 -124.213548 23 484ft 120kts
26-Oct-19 14:22 43.469106 -124.218444 330 1650ft 138kts
26-Oct-19 14:23 43.482822 -124.278780 246 3183ft 255kts
26-Oct-19 14:24 43.428104 -124.354885 226 6393ft 294kts
26-Oct-19 14:25 43.421914 -124.444378 323 9947ft 259kts
26-Oct-19 14:26 43.487201 -124.422375 59 12979ft 334kts
26-Oct-19 14:27 43.453672 -124.289344 117 16129ft 404kts
26-Oct-19 14:28 43.411586 -124.159962 82 18856ft 406kts
26-Oct-19 14:29 43.471623 -124.072617 2 21497ft 306kts
26-Oct-19 14:30 43.549536 -124.019275 15 23662ft 332kts
26-Oct-19 14:31 43.641217 -123.962268 14 25244ft 372kts
26-Oct-19 14:32 43.735018 -123.903100 13 27534ft 383kts
26-Oct-19 14:33 43.833608 -123.841871 14 29785ft 390kts
26-Oct-19 14:34 43.930538 -123.780687 13 32742ft 369kts
26-Oct-19 14:35 44.022243 -123.722749 12 34905ft 358kts
26-Oct-19 14:36 44.115076 -123.663926 12 35314ft 373kts
26-Oct-19 14:37 44.209086 -123.604050 12 35320ft 367kts
26-Oct-19 14:38 44.303166 -123.543927 12 35329ft 367kts
26-Oct-19 14:39 44.396544 -123.484034 12 35326ft 368kts
26-Oct-19 14:40 44.488869 -123.424505 14 35313ft 373kts
26-Oct-19 14:41 44.583516 -123.363812 12 35335ft 371kts
26-Oct-19 14:42 44.675941 -123.303334 12 35342ft 366kts
26-Oct-19 14:43 44.768438 -123.243743 12 35330ft 365kts
26-Oct-19 14:44 44.861091 -123.183177 12 35334ft 365kts
26-Oct-19 14:45 44.953216 -123.122712 12 35331ft 365kts
26-Oct-19 14:46 45.045294 -123.062051 12 35334ft 364kts
26-Oct-19 14:47 45.136654 -123.001712 12 35332ft 363kts
26-Oct-19 14:48 45.228139 -122.941060 12 35340ft 363kts
26-Oct-19 14:49 45.320051 -122.879868 12 35340ft 363kts
26-Oct-19 14:50 45.411704 -122.818627 12 35344ft 364kts
26-Oct-19 14:51 45.503833 -122.756827 12 35336ft 363kts
26-Oct-19 14:52 45.595578 -122.695109 12 35342ft 364kts
26-Oct-19 14:53 45.687993 -122.632674 12 35337ft 366kts
26-Oct-19 14:54 45.780869 -122.598825 343 35330ft 330kts
26-Oct-19 14:55 45.871893 -122.622366 343 35341ft 330kts
26-Oct-19 14:56 45.962532 -122.645040 343 35343ft 330kts
26-Oct-19 14:57 46.053192 -122.667680 344 35347ft 329kts
26-Oct-19 14:58 46.139091 -122.689120 343 32717ft 322kts
26-Oct-19 14:59 46.222872 -122.710112 343 30259ft 307kts
26-Oct-19 15:00 46.306804 -122.731250 343 28183ft 297kts
26-Oct-19 15:01 46.388157 -122.751856 343 26388ft 288kts
26-Oct-19 15:02 46.462895 -122.770522 344 24815ft 280kts
26-Oct-19 15:03 46.538167 -122.789822 344 21622ft 295kts
26-Oct-19 15:04 46.617708 -122.810322 346 17975ft 294kts
26-Oct-19 15:05 46.699231 -122.831266 349 14425ft 302kts
26-Oct-19 15:06 46.777164 -122.851372 349 13221ft 290kts
26-Oct-19 15:07 46.859455 -122.872587 350 13005ft 281kts
26-Oct-19 15:08 46.934476 -122.892011 350 12972ft 269kts
26-Oct-19 15:09 47.002570 -122.863413 38 12046ft 279kts
26-Oct-19 15:10 47.059684 -122.789806 38 10253ft 267kts
26-Oct-19 15:12 47.114057 -122.720327 39 8416ft 261kts
26-Oct-19 15:13 47.162438 -122.658595 38 7855ft 206kts
26-Oct-19 15:14 47.203872 -122.605632 38 6954ft 188kts
26-Oct-19 15:15 47.242925 -122.555400 38 6985ft 184kts
26-Oct-19 15:16 47.281562 -122.505576 39 6973ft 183kts
26-Oct-19 15:17 47.301640 -122.442824 107 6986ft 199kts
26-Oct-19 15:18 47.299867 -122.364783 84 5853ft 167kts
26-Oct-19 15:19 47.301290 -122.290983 80 3568ft 192kts
26-Oct-19 15:20 47.342711 -122.255223 16 1916ft 181kts
26-Oct-19 15:21 47.383878 -122.236681 15 2025ft 145kts
26-Oct-19 15:22 47.422577 -122.219284 6 1967ft 147kts
26-Oct-19 15:23 47.455042 -122.246806 345 795ft 114kts
26-Oct-19 15:24 47.485265 -122.264820 332 634ft 125kts
26-Oct-19 15:25 47.514303 -122.289154 331 101ft 111kts
26-Oct-19 15:26 47.533514 -122.305558 322 25ft 18kts
26-Oct-19 15:27 47.533594 -122.306750 242 25ft 0kts
26-Oct-19 15:28 47.535548 -122.308716 331 25ft 15kts
26-Oct-19 15:29 47.539667 -122.312539 252 25ft 11kts
26-Oct-19 15:30 47.538970 -122.316587 162 25ft 6kts
26-Oct-19 15:31 47.538689 -122.316574 191 25ft 0kts
26-Oct-19 15:31 47.538689 -122.316574 191 25ft 0kts
26-Oct-19 15:33 47.538689 -122.316574 191 25ft 0kts

Navigation Log

Ident Type
Flight plan parsing failed, navigation log unavailable